Weather at Split Airport

Public forecast

Using degrees Celsius for public forecast. Weather courtesy of forecast.io.

Current aviation weather report (METAR) for Split Airport

2024/05/18 10:30 (retrieved 34 minutes ago)

LDSP 181030Z 09005KT 050V140 CAVOK 24/15 Q1014 NOSIG

Aviation forecast (TAF) for Split Airport

2024/05/18 06:27 (retrieved 5 hours ago)

TAF LDSP 180525Z 1806/1906 10005KT CAVOK TX25/1812Z TN17/1903Z PROB40 TEMPO 1811/1813 23008KT BECMG 1815/1817 VRB02KT